Time;durP1;ratioP1;P1;durP2;ratioP2;P2;SDS_P1;SDS_P2;PMS_P1;PMS_P2;Temp;Humidity;BMP_temperature;BMP_pressure;BME280_temperature;BME280_humidity;BME280_pressure;Samples;Min_cycle;Max_cycle;Signal;HPM_P1;HPM_P2
2023/03/02 00:01:51;;;;;;;8.50;3.63;;;;;;;-0.96;91.82;101742.22;5147548;28;20097;-71
2023/03/02 00:04:47;;;;;;;8.02;3.95;;;;;;;-0.81;90.71;101733.28;5145387;28;20424;-72
2023/03/02 00:07:26;;;;;;;12.23;3.88;;;;;;;-0.94;91.52;101731.19;5156100;28;20026;-73
2023/03/02 00:09:57;;;;;;;8.38;3.28;;;;;;;-1.05;91.16;101729.13;5157931;28;20044;-71
2023/03/02 00:12:30;;;;;;;9.02;3.72;;;;;;;-0.88;91.34;101730.50;5149286;28;20022;-72
2023/03/02 00:15:00;;;;;;;10.80;4.32;;;;;;;-0.93;91.87;101732.06;5150228;28;20030;-72
2023/03/02 00:17:30;;;;;;;10.40;4.13;;;;;;;-0.92;91.67;101737.22;5149983;28;20328;-72
2023/03/02 00:20:09;;;;;;;9.57;4.03;;;;;;;-0.99;91.13;101737.00;5151112;28;20046;-72
2023/03/02 00:22:42;;;;;;;11.30;3.95;;;;;;;-1.10;92.35;101738.41;5149875;28;20403;-72
2023/03/02 00:25:15;;;;;;;9.88;4.45;;;;;;;-1.20;92.46;101733.81;5150484;28;20019;-71
2023/03/02 00:27:45;;;;;;;10.52;4.07;;;;;;;-1.16;93.30;101727.94;5151019;28;20022;-72
2023/03/02 00:30:16;;;;;;;11.05;4.20;;;;;;;-1.17;92.77;101728.78;5148450;28;20029;-72
2023/03/02 00:32:46;;;;;;;11.90;3.97;;;;;;;-1.12;93.31;101727.19;5146861;28;20041;-72
2023/03/02 00:35:16;;;;;;;10.75;3.95;;;;;;;-1.19;92.24;101730.41;5142817;28;20057;-71
2023/03/02 00:37:47;;;;;;;10.30;4.00;;;;;;;-1.02;92.11;101731.78;5159574;28;20030;-72
2023/03/02 00:40:18;;;;;;;12.30;3.78;;;;;;;-1.02;92.06;101726.66;5157472;28;20515;-72
2023/03/02 00:42:48;;;;;;;7.07;3.40;;;;;;;-0.99;91.36;101727.63;5147615;28;20046;-73
2023/03/02 00:45:18;;;;;;;10.88;3.92;;;;;;;-1.02;90.93;101736.91;5151809;28;20407;-72
2023/03/02 00:47:48;;;;;;;7.75;3.50;;;;;;;-1.01;91.18;101730.97;5147413;28;20046;-71
2023/03/02 00:50:19;;;;;;;10.60;3.80;;;;;;;-1.00;91.58;101732.69;5151136;28;20024;-72
2023/03/02 00:52:49;;;;;;;9.05;3.88;;;;;;;-1.04;91.94;101730.88;5147718;28;20028;-71
2023/03/02 00:55:20;;;;;;;6.97;3.22;;;;;;;-0.87;91.35;101727.94;5148241;28;20419;-72
2023/03/02 00:57:54;;;;;;;8.70;3.80;;;;;;;-0.90;90.61;101721.88;5143645;28;20039;-73
2023/03/02 01:00:27;;;;;;;8.30;3.20;;;;;;;-0.93;90.81;101727.78;5149581;28;20320;-72
2023/03/02 01:02:57;;;;;;;8.30;3.78;;;;;;;-1.05;92.63;101726.56;5146298;28;20138;-73
2023/03/02 01:05:27;;;;;;;9.13;3.65;;;;;;;-1.20;91.41;101716.72;5147143;28;20277;-71
2023/03/02 01:07:58;;;;;;;11.40;4.40;;;;;;;-1.07;91.08;101712.84;5153333;28;20033;-72
2023/03/02 01:10:30;;;;;;;8.93;3.63;;;;;;;-1.25;92.46;101717.44;5143097;28;20368;-72
2023/03/02 01:13:01;;;;;;;11.15;4.20;;;;;;;-1.29;94.28;101723.25;5147085;28;20121;-73
2023/03/02 01:15:32;;;;;;;11.25;4.32;;;;;;;-1.30;94.75;101721.53;5155107;28;20032;-73
2023/03/02 01:18:02;;;;;;;7.65;3.78;;;;;;;-1.22;93.28;101718.38;5147550;28;20526;-72
2023/03/02 01:20:33;;;;;;;9.73;4.20;;;;;;;-1.18;94.15;101724.47;5131846;28;20022;-71
2023/03/02 01:23:03;;;;;;;11.52;4.07;;;;;;;-1.22;93.30;101717.50;5129709;28;20035;-71
2023/03/02 01:25:34;;;;;;;12.18;3.88;;;;;;;-1.04;92.95;101716.34;5147880;28;20366;-71
2023/03/02 01:28:04;;;;;;;8.43;4.07;;;;;;;-1.07;91.30;101715.41;5152946;28;20457;-74
2023/03/02 01:30:34;;;;;;;10.75;4.05;;;;;;;-1.32;91.96;101710.38;5149103;28;20022;-71
2023/03/02 01:33:04;;;;;;;8.77;3.72;;;;;;;-1.53;93.22;101714.84;5149586;28;21060;-72
2023/03/02 01:35:35;;;;;;;11.98;3.85;;;;;;;-1.70;94.14;101719.47;5152425;28;20523;-72
2023/03/02 01:38:05;;;;;;;7.30;3.38;;;;;;;-1.88;97.83;101715.44;5144203;28;20030;-71
2023/03/02 01:44:02;;;;;;;9.98;3.83;;;;;;;-1.96;96.98;101706.59;5150275;28;20066;-73
2023/03/02 01:46:34;;;;;;;8.77;3.80;;;;;;;-1.93;98.03;101706.75;5150857;28;20432;-72
2023/03/02 01:49:10;;;;;;;11.15;4.00;;;;;;;-1.97;98.48;101698.91;5148139;28;20033;-74
2023/03/02 01:51:46;;;;;;;11.63;4.00;;;;;;;-2.04;100.00;101700.38;5150188;28;20029;-72
2023/03/02 01:54:23;;;;;;;9.45;4.03;;;;;;;-2.11;100.00;101690.78;5145797;28;20022;-73
2023/03/02 01:57:01;;;;;;;9.88;3.72;;;;;;;-1.95;100.00;101687.91;5152259;28;20467;-72
2023/03/02 01:59:35;;;;;;;8.40;3.53;;;;;;;-1.87;100.00;101691.56;5146728;28;20034;-73
2023/03/02 02:02:08;;;;;;;8.93;4.18;;;;;;;-1.72;100.00;101690.34;5153706;28;20068;-72
2023/03/02 02:04:41;;;;;;;12.15;4.00;;;;;;;-1.58;99.38;101683.94;5150102;28;20350;-74
2023/03/02 02:07:12;;;;;;;9.15;4.05;;;;;;;-1.67;98.88;101675.09;5154556;28;20060;-72
2023/03/02 02:09:46;;;;;;;8.75;3.88;;;;;;;-1.77;99.08;101675.66;5155258;28;20053;-72
2023/03/02 02:12:22;;;;;;;7.07;3.70;;;;;;;-1.81;100.00;101684.06;5148127;28;20121;-72
2023/03/02 02:14:53;;;;;;;8.20;4.00;;;;;;;-1.95;99.89;101680.22;5150276;28;20033;-73
2023/03/02 02:17:24;;;;;;;11.77;3.95;;;;;;;-2.07;100.00;101679.81;5131748;28;20026;-73
2023/03/02 02:20:06;;;;;;;8.15;3.95;;;;;;;-2.01;100.00;101674.88;5152417;28;20102;-72
2023/03/02 02:23:12;;;;;;;10.05;4.03;;;;;;;-1.68;100.00;101678.50;5147708;28;20431;-72
2023/03/02 02:25:54;;;;;;;11.80;4.25;;;;;;;-1.72;96.98;101674.97;5152850;28;20132;-72
2023/03/02 02:28:30;;;;;;;8.77;3.58;;;;;;;-1.81;96.50;101676.38;5143862;28;20030;-73
2023/03/02 02:31:19;;;;;;;7.60;3.55;;;;;;;-1.84;98.39;101678.84;5150235;28;20038;-72
2023/03/02 02:33:54;;;;;;;9.85;4.13;;;;;;;-1.93;98.82;101677.69;5141957;28;20034;-73
2023/03/02 02:36:31;;;;;;;11.05;3.78;;;;;;;-1.98;98.85;101682.66;5161326;28;20030;-73
2023/03/02 02:39:05;;;;;;;9.77;3.65;;;;;;;-1.93;100.00;101670.88;5153177;28;20117;-72
2023/03/02 02:41:38;;;;;;;9.60;4.07;;;;;;;-1.92;99.60;101674.31;5154592;28;20038;-73
2023/03/02 02:44:14;;;;;;;7.90;3.80;;;;;;;-1.71;99.71;101674.13;5150936;28;20030;-72
2023/03/02 02:46:45;;;;;;;13.05;4.63;;;;;;;-1.51;100.00;101674.75;5146333;28;20057;-72
2023/03/02 02:49:27;;;;;;;10.00;3.92;;;;;;;-1.38;99.53;101664.06;5154360;28;20059;-73
2023/03/02 02:51:58;;;;;;;10.05;3.65;;;;;;;-1.25;99.20;101671.28;5147588;28;20044;-74
2023/03/02 02:54:30;;;;;;;8.13;3.90;;;;;;;-1.09;96.96;101668.34;5149882;28;20259;-74
2023/03/02 02:57:03;;;;;;;8.50;3.95;;;;;;;-1.22;96.39;101667.09;5146582;28;20065;-72
2023/03/02 02:59:42;;;;;;;11.02;4.03;;;;;;;-1.01;96.75;101657.47;5146994;28;20029;-73
2023/03/02 03:02:22;;;;;;;8.10;3.40;;;;;;;-1.05;96.09;101659.91;5153818;28;20072;-74
2023/03/02 03:05:02;;;;;;;9.27;3.85;;;;;;;-1.08;97.75;101664.94;5150091;28;20443;-73
2023/03/02 03:07:32;;;;;;;10.63;4.15;;;;;;;-1.10;98.29;101662.31;5164944;28;20152;-73
2023/03/02 03:10:12;;;;;;;10.63;4.38;;;;;;;-1.19;98.25;101667.22;5147415;28;20023;-73
2023/03/02 03:12:44;;;;;;;12.80;5.05;;;;;;;-1.06;99.62;101658.16;5153671;28;20511;-72
2023/03/02 03:15:15;;;;;;;15.52;5.03;;;;;;;-1.02;100.00;101654.84;5145981;28;20404;-73
2023/03/02 03:17:58;;;;;;;14.20;4.97;;;;;;;-1.00;100.00;101643.81;5147085;28;20018;-74
2023/03/02 03:20:28;;;;;;;13.90;4.57;;;;;;;-0.90;100.00;101637.25;5147504;28;20033;-73
2023/03/02 03:22:59;;;;;;;10.90;5.00;;;;;;;-0.79;99.50;101643.50;5147559;28;20030;-73
2023/03/02 03:25:30;;;;;;;12.90;4.95;;;;;;;-0.93;100.00;101650.84;5140256;28;20023;-73
2023/03/02 03:28:02;;;;;;;15.73;5.15;;;;;;;-0.86;100.00;101646.75;5149665;28;20680;-73
2023/03/02 03:30:33;;;;;;;13.20;5.18;;;;;;;-0.73;100.00;101648.81;5146321;28;20110;-72
2023/03/02 03:33:03;;;;;;;11.98;4.85;;;;;;;-0.80;100.00;101646.91;5147319;28;20132;-73
2023/03/02 03:35:35;;;;;;;12.63;5.65;;;;;;;-0.80;100.00;101646.91;5149297;28;20021;-73
2023/03/02 03:38:06;;;;;;;13.73;6.28;;;;;;;-0.77;100.00;101649.53;5142564;28;20027;-72
2023/03/02 03:40:37;;;;;;;15.40;6.43;;;;;;;-0.77;100.00;101654.69;5133646;28;20026;-73
2023/03/02 03:43:07;;;;;;;17.73;6.88;;;;;;;-0.71;100.00;101644.59;5145412;28;20031;-74
2023/03/02 03:45:38;;;;;;;15.50;6.75;;;;;;;-0.73;100.00;101651.38;5148281;28;20042;-73
2023/03/02 03:48:08;;;;;;;14.95;6.40;;;;;;;-0.75;100.00;101653.03;5148290;28;20072;-72
2023/03/02 03:50:39;;;;;;;17.15;6.30;;;;;;;-0.83;100.00;101645.16;5146478;28;20737;-73
2023/03/02 03:53:09;;;;;;;17.63;6.78;;;;;;;-0.71;100.00;101662.56;5145138;28;20168;-72
2023/03/02 03:55:39;;;;;;;17.40;7.18;;;;;;;-0.67;100.00;101655.00;5155896;28;20395;-72
2023/03/02 03:58:10;;;;;;;18.15;7.75;;;;;;;-0.75;100.00;101661.59;5146451;28;20034;-72
2023/03/02 04:00:40;;;;;;;22.73;7.65;;;;;;;-0.71;100.00;101660.00;5148826;28;20041;-73
2023/03/02 04:03:10;;;;;;;20.60;7.97;;;;;;;-0.79;100.00;101664.03;5149689;28;20116;-72
2023/03/02 04:05:41;;;;;;;16.77;7.22;;;;;;;-0.81;100.00;101655.44;5152654;28;20089;-75
2023/03/02 04:08:11;;;;;;;20.73;7.78;;;;;;;-0.84;100.00;101665.63;5146795;28;20026;-73
2023/03/02 04:10:41;;;;;;;16.95;7.18;;;;;;;-0.88;100.00;101658.66;5154037;28;20522;-73
2023/03/02 04:13:12;;;;;;;22.13;8.18;;;;;;;-1.07;100.00;101666.69;5145565;28;20054;-72
2023/03/02 04:15:42;;;;;;;16.17;7.50;;;;;;;-1.09;100.00;101663.22;5131625;28;20338;-71
2023/03/02 04:18:13;;;;;;;17.92;7.85;;;;;;;-1.19;100.00;101671.44;5148757;28;20030;-72
2023/03/02 04:20:43;;;;;;;22.55;8.65;;;;;;;-1.14;100.00;101664.75;5145307;28;20426;-72
2023/03/02 04:23:13;;;;;;;20.30;9.10;;;;;;;-1.08;100.00;101667.50;5144248;28;20026;-72
2023/03/02 04:25:44;;;;;;;23.80;9.07;;;;;;;-1.21;100.00;101673.09;5151658;28;20430;-74
2023/03/02 04:28:15;;;;;;;27.42;9.65;;;;;;;-1.13;100.00;101677.63;5149113;28;20022;-73
2023/03/02 04:30:46;;;;;;;25.77;10.07;;;;;;;-1.39;100.00;101677.69;5145325;28;20050;-72
2023/03/02 04:33:16;;;;;;;24.05;9.93;;;;;;;-1.38;100.00;101674.31;5152318;28;20852;-73
2023/03/02 04:35:46;;;;;;;25.08;10.40;;;;;;;-1.39;100.00;101670.00;5150364;28;20117;-72
2023/03/02 04:38:17;;;;;;;30.35;10.48;;;;;;;-1.31;100.00;101666.84;5159432;28;20361;-74
2023/03/02 04:40:47;;;;;;;31.67;10.63;;;;;;;-1.18;100.00;101657.81;5155472;28;20041;-75
2023/03/02 04:43:17;;;;;;;27.63;9.60;;;;;;;-1.09;100.00;101660.66;5144571;28;20034;-72
2023/03/02 04:45:47;;;;;;;25.75;10.50;;;;;;;-1.14;100.00;101664.75;5152094;28;20856;-73
2023/03/02 04:48:19;;;;;;;30.25;9.68;;;;;;;-1.22;100.00;101655.97;5147632;28;20026;-72
2023/03/02 04:50:49;;;;;;;26.33;10.48;;;;;;;-1.12;100.00;101660.53;5149584;28;20039;-73
2023/03/02 04:53:19;;;;;;;25.27;10.30;;;;;;;-1.10;100.00;101661.47;5151155;28;20089;-74
2023/03/02 04:55:50;;;;;;;25.88;10.50;;;;;;;-1.01;100.00;101661.72;5138142;28;20041;-71
2023/03/02 04:58:20;;;;;;;26.20;10.60;;;;;;;-1.03;100.00;101668.50;5147907;28;20059;-73
2023/03/02 05:00:50;;;;;;;27.88;11.43;;;;;;;-1.04;100.00;101672.75;5146774;28;20034;-74
2023/03/02 05:03:20;;;;;;;26.92;10.18;;;;;;;-0.93;100.00;101662.81;5153148;28;20029;-73
2023/03/02 05:05:51;;;;;;;26.77;10.77;;;;;;;-0.94;100.00;101656.78;5162118;28;20113;-72
2023/03/02 05:08:21;;;;;;;30.88;11.52;;;;;;;-0.94;100.00;101654.22;5154004;28;20221;-73
2023/03/02 05:10:53;;;;;;;25.10;10.50;;;;;;;-0.90;100.00;101655.19;5158160;28;20045;-73
2023/03/02 05:13:25;;;;;;;27.27;11.02;;;;;;;-0.87;100.00;101658.69;5148564;28;20030;-72
2023/03/02 05:15:57;;;;;;;23.67;10.40;;;;;;;-0.77;100.00;101654.69;5147849;28;20104;-74
2023/03/02 05:18:27;;;;;;;26.58;10.85;;;;;;;-0.77;100.00;101653.00;5149256;28;20081;-73
2023/03/02 05:20:57;;;;;;;24.50;11.18;;;;;;;-0.81;100.00;101656.31;5150199;28;20443;-72
2023/03/02 05:23:30;;;;;;;24.08;10.35;;;;;;;-0.77;100.00;101652.09;5146660;28;20027;-74
2023/03/02 05:26:00;;;;;;;22.52;10.30;;;;;;;-0.75;100.00;101650.47;5137643;28;20481;-72
2023/03/02 05:28:32;;;;;;;26.13;10.65;;;;;;;-0.82;100.00;101653.69;5144101;28;20159;-73
2023/03/02 05:31:02;;;;;;;27.63;10.75;;;;;;;-0.73;100.00;101648.81;5149295;28;20026;-74
2023/03/02 05:33:33;;;;;;;24.38;10.55;;;;;;;-0.82;100.00;101649.44;5146647;28;20022;-72
2023/03/02 05:36:03;;;;;;;26.77;10.70;;;;;;;-0.75;100.00;101658.19;5139298;28;20081;-73
2023/03/02 05:38:33;;;;;;;22.85;10.02;;;;;;;-0.57;100.00;101654.38;5151842;28;20250;-72
2023/03/02 05:41:04;;;;;;;26.23;10.55;;;;;;;-0.58;100.00;101656.94;5151461;28;20088;-72
2023/03/02 05:43:35;;;;;;;22.83;10.27;;;;;;;-0.61;100.00;101659.38;5151399;28;20031;-72
2023/03/02 05:46:05;;;;;;;35.33;10.00;;;;;;;-0.77;100.00;101660.69;5146282;28;20147;-73
2023/03/02 05:48:36;;;;;;;25.38;9.95;;;;;;;-1.02;100.00;101659.97;5148888;28;20030;-74
2023/03/02 05:51:06;;;;;;;24.42;10.52;;;;;;;-0.97;100.00;101653.25;5150441;28;20026;-74
2023/03/02 05:53:36;;;;;;;25.55;11.52;;;;;;;-0.97;100.00;101654.16;5146918;28;20105;-72
2023/03/02 05:56:07;;;;;;;25.65;11.07;;;;;;;-0.98;100.00;101648.97;5161269;28;20121;-72
2023/03/02 05:58:38;;;;;;;27.13;11.27;;;;;;;-1.05;100.00;101652.19;5150120;28;20026;-72
2023/03/02 06:01:09;;;;;;;30.95;10.85;;;;;;;-0.75;100.00;101660.75;5153598;28;20520;-73
2023/03/02 06:03:40;;;;;;;29.52;10.77;;;;;;;-0.83;100.00;101659.66;5132446;28;20050;-72
2023/03/02 06:06:14;;;;;;;27.70;10.63;;;;;;;-0.81;100.00;101665.69;5157944;28;20135;-73
2023/03/02 06:08:44;;;;;;;26.30;11.90;;;;;;;-0.75;100.00;101666.72;5157774;28;20036;-73
2023/03/02 06:11:14;;;;;;;32.50;10.82;;;;;;;-0.98;100.00;101666.91;5154557;28;20027;-72
2023/03/02 06:13:44;;;;;;;27.85;11.07;;;;;;;-0.86;100.00;101675.81;5152506;28;20029;-72
2023/03/02 06:16:15;;;;;;;27.77;10.60;;;;;;;-0.99;100.00;101672.88;5147039;28;20037;-73
2023/03/02 06:18:45;;;;;;;25.95;11.10;;;;;;;-1.00;100.00;101678.84;5136946;28;20034;-74
2023/03/02 06:21:16;;;;;;;24.25;10.77;;;;;;;-1.00;100.00;101689.09;5147184;28;20027;-74
2023/03/02 06:23:46;;;;;;;33.20;10.50;;;;;;;-1.14;100.00;101698.97;5127822;28;20056;-73
2023/03/02 06:26:16;;;;;;;23.08;10.38;;;;;;;-1.08;100.00;101691.44;5135947;28;20023;-73
2023/03/02 06:28:46;;;;;;;28.92;10.73;;;;;;;-1.03;100.00;101699.28;5142399;28;20504;-72
2023/03/02 06:31:17;;;;;;;24.05;10.32;;;;;;;-0.94;100.00;101694.38;5131408;28;20038;-73
2023/03/02 06:33:47;;;;;;;30.75;10.85;;;;;;;-0.88;100.00;101689.44;5144372;28;20060;-72
2023/03/02 06:36:18;;;;;;;24.27;10.85;;;;;;;-0.89;100.00;101687.72;5152723;28;20662;-72
2023/03/02 06:38:49;;;;;;;24.42;11.10;;;;;;;-0.84;100.00;101689.59;5136391;28;20561;-73
2023/03/02 06:41:19;;;;;;;28.88;10.48;;;;;;;-0.89;100.00;101692.84;5153347;28;20038;-74
2023/03/02 06:43:50;;;;;;;24.02;9.70;;;;;;;-0.86;100.00;101692.94;5149754;28;20547;-73
2023/03/02 06:46:20;;;;;;;24.52;10.32;;;;;;;-0.86;100.00;101693.78;5149736;28;20030;-73
2023/03/02 06:48:50;;;;;;;26.20;10.32;;;;;;;-0.74;100.00;101700.97;5150977;28;20068;-75
2023/03/02 06:51:21;;;;;;;26.10;11.52;;;;;;;-0.79;100.00;101694.81;5140387;28;20026;-73
2023/03/02 06:53:51;;;;;;;28.95;10.45;;;;;;;-0.82;100.00;101693.06;5145507;28;20031;-72
2023/03/02 06:56:21;;;;;;;24.30;11.90;;;;;;;-0.86;100.00;101696.34;5134549;28;20120;-73
2023/03/02 06:58:52;;;;;;;26.10;11.07;;;;;;;-0.77;100.00;101695.72;5150807;28;20065;-73
2023/03/02 07:01:22;;;;;;;25.55;9.77;;;;;;;-0.61;100.00;101692.75;5152280;28;20469;-74
2023/03/02 07:03:52;;;;;;;28.40;10.80;;;;;;;-0.68;100.00;101694.31;5134455;28;20073;-73
2023/03/02 07:06:23;;;;;;;30.15;11.20;;;;;;;-0.81;100.00;101686.22;5154124;28;20022;-72
2023/03/02 07:08:53;;;;;;;29.65;10.02;;;;;;;-0.87;100.00;101689.47;5141851;28;20043;-73
2023/03/02 07:11:23;;;;;;;23.92;10.15;;;;;;;-0.73;100.00;101682.19;5146946;28;20058;-70
2023/03/02 07:13:54;;;;;;;27.23;11.52;;;;;;;-0.65;100.00;101683.25;5130286;28;20054;-72
2023/03/02 07:16:24;;;;;;;25.45;10.32;;;;;;;-0.70;100.00;101689.94;5130011;28;20031;-72
2023/03/02 07:18:54;;;;;;;24.35;9.82;;;;;;;-0.52;100.00;101688.72;5138262;28;20031;-73
2023/03/02 07:21:25;;;;;;;26.83;11.52;;;;;;;-0.61;100.00;101687.63;5154204;28;20382;-70
2023/03/02 07:23:55;;;;;;;25.48;10.50;;;;;;;-0.56;100.00;101688.63;5148322;28;20027;-72
2023/03/02 07:26:25;;;;;;;27.23;10.07;;;;;;;-0.62;100.00;101688.44;5149032;28;20366;-73
2023/03/02 07:28:58;;;;;;;26.80;10.60;;;;;;;-0.52;100.00;101681.03;5147264;28;20058;-72
2023/03/02 07:31:29;;;;;;;32.88;10.32;;;;;;;-0.40;100.00;101677.94;5129652;28;20030;-74
2023/03/02 07:33:59;;;;;;;27.70;11.63;;;;;;;-0.40;100.00;101680.50;5150161;28;20034;-73
2023/03/02 07:36:30;;;;;;;26.25;11.07;;;;;;;-0.30;100.00;101675.63;5151447;28;20238;-72
2023/03/02 07:39:03;;;;;;;29.30;10.23;;;;;;;-0.26;100.00;101679.13;5156443;28;20030;-73
2023/03/02 07:41:33;;;;;;;22.30;9.63;;;;;;;-0.17;100.00;101674.25;5146219;28;20030;-72
2023/03/02 07:44:04;;;;;;;23.98;9.75;;;;;;;-0.17;100.00;101676.81;5147623;28;20323;-72
2023/03/02 07:46:34;;;;;;;22.83;9.43;;;;;;;-0.06;100.00;101672.81;5150730;28;20042;-72
2023/03/02 07:49:04;;;;;;;24.02;10.60;;;;;;;-0.25;100.00;101675.75;5131428;28;20037;-70
2023/03/02 07:51:35;;;;;;;22.35;10.15;;;;;;;0.04;100.00;101680.78;5137099;28;20038;-72
2023/03/02 07:54:05;;;;;;;27.17;9.88;;;;;;;-0.23;100.00;101668.97;5149228;28;20500;-72
2023/03/02 07:56:36;;;;;;;23.08;10.10;;;;;;;-0.22;100.00;101665.56;5153753;28;20041;-72
2023/03/02 07:59:06;;;;;;;22.35;9.93;;;;;;;-0.30;100.00;101669.63;5147405;28;20054;-72
2023/03/02 08:01:36;;;;;;;23.50;10.00;;;;;;;-0.34;100.00;101665.25;5147000;28;20041;-72
2023/03/02 08:04:07;;;;;;;26.98;9.93;;;;;;;-0.27;100.00;101669.69;5135061;28;20041;-72
2023/03/02 08:06:37;;;;;;;21.60;9.25;;;;;;;-0.24;100.00;101667.22;5159152;28;20042;-73
2023/03/02 08:09:07;;;;;;;22.40;8.48;;;;;;;-0.12;100.00;101663.25;5155801;28;20025;-72
2023/03/02 08:11:38;;;;;;;20.40;9.05;;;;;;;-0.23;100.00;101677.53;5149488;28;20033;-73
2023/03/02 08:14:08;;;;;;;23.33;9.77;;;;;;;-0.26;100.00;101674.00;5156401;28;20331;-73
2023/03/02 08:16:38;;;;;;;25.73;9.65;;;;;;;-0.20;100.00;101676.75;5150306;28;20026;-73
2023/03/02 08:19:09;;;;;;;18.88;8.77;;;;;;;-0.07;100.00;101669.38;5150488;28;20018;-72
2023/03/02 08:21:40;;;;;;;26.13;9.63;;;;;;;-0.24;100.00;101675.78;5134880;28;20395;-73
2023/03/02 08:24:11;;;;;;;23.15;10.35;;;;;;;-0.08;100.00;101677.06;5149401;28;20027;-72
2023/03/02 08:26:41;;;;;;;21.65;9.77;;;;;;;0.08;100.00;101675.72;5149146;28;20042;-73
2023/03/02 08:29:11;;;;;;;19.67;9.27;;;;;;;0.22;100.00;101676.94;5150353;28;20026;-73
2023/03/02 08:31:42;;;;;;;20.98;9.27;;;;;;;0.36;100.00;101670.41;5151028;28;21017;-73
2023/03/02 08:34:12;;;;;;;20.42;9.30;;;;;;;0.47;100.00;101675.78;5151223;28;20153;-73
2023/03/02 08:36:43;;;;;;;19.35;9.07;;;;;;;0.49;100.00;101677.56;5157481;28;20477;-70
2023/03/02 08:39:14;;;;;;;20.20;8.75;;;;;;;0.31;100.00;101684.88;5152453;28;20018;-71
2023/03/02 08:41:44;;;;;;;20.75;8.95;;;;;;;0.52;100.00;101681.91;5152064;28;20030;-73
2023/03/02 08:44:16;;;;;;;17.02;8.38;;;;;;;0.42;100.00;101677.41;5148743;28;20027;-72
2023/03/02 08:46:48;;;;;;;16.65;7.93;;;;;;;0.51;100.00;101683.63;5148929;28;20105;-73
2023/03/02 08:49:18;;;;;;;18.02;7.63;;;;;;;0.47;100.00;101686.06;5147987;28;20033;-73
2023/03/02 08:51:52;;;;;;;17.50;8.65;;;;;;;0.34;100.00;101686.63;5150929;28;20030;-73
2023/03/02 08:54:22;;;;;;;16.02;7.70;;;;;;;0.60;100.00;101686.41;5148870;28;20074;-73
2023/03/02 08:56:53;;;;;;;16.77;7.68;;;;;;;0.52;100.00;101692.22;5133450;28;20042;-72
2023/03/02 08:59:23;;;;;;;16.33;8.07;;;;;;;0.61;100.00;101688.13;5148258;28;20449;-73
2023/03/02 09:01:53;;;;;;;16.20;6.80;;;;;;;0.45;100.00;101691.19;5150954;28;20034;-73
2023/03/02 09:04:24;;;;;;;18.10;7.63;;;;;;;0.46;100.00;101682.66;5136402;28;20104;-73
2023/03/02 09:06:54;;;;;;;16.08;7.80;;;;;;;0.62;100.00;101679.59;5144224;28;20057;-73
2023/03/02 09:09:24;;;;;;;18.73;8.55;;;;;;;0.33;100.00;101687.44;5157263;28;20081;-73
2023/03/02 09:11:55;;;;;;;18.27;7.43;;;;;;;0.58;100.00;101672.63;5151737;28;20037;-73
2023/03/02 09:14:26;;;;;;;20.38;8.27;;;;;;;0.89;100.00;101676.72;5148885;28;20275;-73
2023/03/02 09:16:56;;;;;;;18.65;8.48;;;;;;;0.69;100.00;101684.00;5150765;28;20042;-72
2023/03/02 09:19:26;;;;;;;19.63;9.02;;;;;;;0.72;100.00;101686.66;5143028;28;20026;-72
2023/03/02 09:21:57;;;;;;;18.90;8.15;;;;;;;0.65;100.00;101679.66;5140103;28;20034;-73
2023/03/02 09:24:27;;;;;;;18.98;8.25;;;;;;;0.60;100.00;101682.94;5147875;28;20062;-73
2023/03/02 09:26:57;;;;;;;17.95;8.52;;;;;;;0.85;100.00;101675.78;5132871;28;20084;-72
2023/03/02 09:29:28;;;;;;;18.75;8.57;;;;;;;0.76;100.00;101682.44;5148340;28;20750;-72
2023/03/02 09:31:58;;;;;;;17.60;8.07;;;;;;;0.92;100.00;101680.22;5149768;28;20030;-74
2023/03/02 09:34:28;;;;;;;15.93;7.63;;;;;;;1.12;100.00;101678.06;5130989;28;20015;-72
2023/03/02 09:36:58;;;;;;;16.67;7.63;;;;;;;1.17;100.00;101674.72;5159282;28;20487;-71
2023/03/02 09:39:29;;;;;;;21.08;8.38;;;;;;;1.11;100.00;101679.78;5147251;28;20041;-71
2023/03/02 09:41:59;;;;;;;17.92;7.88;;;;;;;0.94;100.00;101683.72;5149940;28;20054;-72
2023/03/02 09:45:01;;;;;;;15.50;7.88;;;;;;;0.85;100.00;101677.47;5148475;28;20410;-71
2023/03/02 09:47:42;;;;;;;16.63;7.85;;;;;;;0.75;100.00;101684.13;5132759;28;20524;-73
2023/03/02 09:50:26;;;;;;;18.17;7.95;;;;;;;0.90;100.00;101676.75;5146815;28;20643;-73
2023/03/02 09:53:11;;;;;;;19.75;8.57;;;;;;;0.99;100.00;101676.06;5147531;28;20035;-73
2023/03/02 09:55:45;;;;;;;17.23;7.97;;;;;;;1.19;100.00;101677.31;5154738;28;20045;-73
2023/03/02 09:58:18;;;;;;;17.80;8.13;;;;;;;1.33;100.00;101669.03;5145768;28;20057;-74
2023/03/02 10:00:50;;;;;;;15.20;7.32;;;;;;;1.57;100.00;101663.47;5152479;28;20030;-73
2023/03/02 10:03:49;;;;;;;17.83;8.27;;;;;;;1.39;100.00;101664.00;5149327;28;20050;-74
2023/03/02 10:06:19;;;;;;;16.02;8.07;;;;;;;1.57;100.00;101664.31;5150167;28;20128;-73
2023/03/02 10:08:50;;;;;;;16.13;7.60;;;;;;;1.74;100.00;101659.50;5154196;28;20026;-72
2023/03/02 10:11:47;;;;;;;15.57;8.27;;;;;;;1.54;100.00;101659.13;5152546;28;20026;-73
2023/03/02 10:14:33;;;;;;;15.88;7.40;;;;;;;1.40;100.00;101664.88;5145712;28;20035;-72
2023/03/02 10:17:18;;;;;;;17.35;8.20;;;;;;;1.37;100.00;101657.97;5148521;28;20025;-72
2023/03/02 10:19:57;;;;;;;16.10;8.45;;;;;;;1.55;100.00;101654.88;5133752;28;20097;-73
2023/03/02 10:22:34;;;;;;;16.00;7.88;;;;;;;1.51;100.00;101659.09;5148290;28;20129;-73
2023/03/02 10:25:22;;;;;;;18.52;8.52;;;;;;;1.73;100.00;101666.34;5147258;28;20396;-73
2023/03/02 10:28:06;;;;;;;15.52;7.57;;;;;;;1.82;100.00;101663.94;5145825;28;20061;-73
2023/03/02 10:30:37;;;;;;;17.00;8.13;;;;;;;1.87;100.00;101654.56;5149963;28;20376;-72
2023/03/02 10:33:15;;;;;;;18.20;8.82;;;;;;;1.62;100.00;101660.16;5146404;28;20026;-73
2023/03/02 10:35:50;;;;;;;17.15;8.30;;;;;;;1.58;100.00;101653.19;5151697;28;20049;-71
2023/03/02 10:38:23;;;;;;;17.05;7.95;;;;;;;1.64;100.00;101647.28;5154333;28;20026;-73
2023/03/02 10:41:01;;;;;;;19.40;9.00;;;;;;;1.43;100.00;101649.47;5141676;28;20483;-73
2023/03/02 10:43:34;;;;;;;19.02;9.10;;;;;;;1.32;100.00;101661.28;5148101;28;20498;-73
2023/03/02 10:46:07;;;;;;;18.02;8.32;;;;;;;1.10;100.00;101660.00;5148189;28;20022;-73
2023/03/02 10:48:52;;;;;;;24.50;9.75;;;;;;;1.00;100.00;101663.25;5147866;28;20124;-74
2023/03/02 10:51:28;;;;;;;18.88;8.75;;;;;;;1.18;100.00;101657.56;5146953;28;20041;-71
2023/03/02 10:54:08;;;;;;;22.27;10.05;;;;;;;1.07;100.00;101659.94;5149247;28;20034;-72
2023/03/02 10:56:48;;;;;;;21.83;8.95;;;;;;;1.39;100.00;101645.97;5152912;28;20033;-74
2023/03/02 10:59:35;;;;;;;20.70;9.90;;;;;;;1.53;100.00;101647.09;5143526;28;20481;-73
2023/03/02 11:02:23;;;;;;;22.42;9.70;;;;;;;1.57;100.00;101637.72;5146391;28;20595;-72
2023/03/02 11:05:13;;;;;;;20.17;9.73;;;;;;;1.93;100.00;101644.34;5145541;28;20085;-72
2023/03/02 11:07:54;;;;;;;21.05;9.65;;;;;;;2.10;100.00;101633.47;5153980;28;20031;-73
2023/03/02 11:10:28;;;;;;;17.15;8.18;;;;;;;2.18;100.00;101636.16;5155298;28;20033;-74
2023/03/02 11:13:01;;;;;;;14.90;7.22;;;;;;;2.22;100.00;101635.34;5147769;28;20034;-73
2023/03/02 11:15:31;;;;;;;17.08;7.20;;;;;;;2.29;100.00;101630.31;5145789;28;20026;-73
2023/03/02 11:18:10;;;;;;;16.55;8.05;;;;;;;1.87;100.00;101628.78;5147235;28;20036;-73
2023/03/02 11:20:44;;;;;;;17.25;8.35;;;;;;;1.80;100.00;101632.13;5149233;28;20042;-73
2023/03/02 11:23:25;;;;;;;18.77;8.82;;;;;;;1.57;100.00;101623.13;5145036;28;20058;-73
2023/03/02 11:26:01;;;;;;;17.10;7.65;;;;;;;2.03;100.00;101616.16;5146606;28;20513;-73
2023/03/02 11:29:07;;;;;;;19.73;9.32;;;;;;;1.64;100.00;101619.81;5129412;28;20054;-73
2023/03/02 11:31:47;;;;;;;13.33;6.63;;;;;;;1.98;100.00;101616.94;5102338;28;20564;-72
2023/03/02 11:34:26;;;;;;;18.35;8.02;;;;;;;2.08;100.00;101616.22;5143535;28;20018;-72
2023/03/02 11:37:02;;;;;;;17.75;7.75;;;;;;;2.06;100.00;101620.50;5157868;28;20460;-73
2023/03/02 11:39:48;;;;;;;18.25;8.45;;;;;;;2.24;100.00;101623.34;5154740;28;20079;-73
2023/03/02 11:42:23;;;;;;;18.90;7.70;;;;;;;2.04;100.00;101628.22;5145425;28;20316;-73